Ann Arbor, MI (48104)

4:15 AM EDT on April 01, 2015 (GMT -0400)
Marra Drive | | Change Station
CLOSE
Current Station
Personal Weather Station
Location: Ann Arbor, MI
Elevation: 925 ft
Nearby Weather Stations

Elev 925 ft 42.26 °N, 83.76 °W | Updated 22 seconds ago

Clear
Clear
31.3 °F
Feels Like 31 °F
N
2.0
Wind Variable Wind from SW
Gusts 3.0 mph

Today
High -- | Low -- °F
--% Chance of Precip.
Yesterday
High -- | Low -- °F
Precip. -- in
7:17 AM 8:00 PM
Waxing Gibbous, 91% visible
Pressure 29.99 in
Visibility 1.5 miles
Clouds Clear
Windchill 31 °F
Dew Point 30 °F
Humidity 94%
Rainfall 0.00 in
Snow Depth Not available.
UV 0.0 out of 12
Pollen 4.50 out of 12
Air Quality Not available.
Flu Activity Not available.
SPECI KARB 010810Z AUTO 22003KT 1 1/2SM BR CLR M02/M02 A2999 RMK AO2 T10171017 $

More Conditions Fewer Conditions

Pressure 29.99 in
Visibility 1.5 miles
Clouds Clear
Windchill 31 °F
Dew Point 30 °F
Humidity 94%
Rainfall 0.00 in
Snow Depth Not available.
UV 0.0 out of 12
Pollen 4.50 out of 12
Air Quality Not available.
Flu Activity Not available.
SPECI KARB 010810Z AUTO 22003KT 1 1/2SM BR CLR M02/M02 A2999 RMK AO2 T10171017 $

More Conditions Fewer Conditions

10-Day Weather Forecast

Almanac

Astronomy

Apr. 01, 2015 Rise Set
Actual Time
Civil Twilight
Nautical Twilight
Astronomical Twilight
Moon
Length of Visible Light
Length of Day
Tomorrow will be .
, % of the Moon is Illuminated

Today's Extremes

State Highs State Lows

Community

WunderPhotos

Upload Photos

1,809,932 photos uploaded!

WunderBlogs® & News

Nearby

Air Quality

  Air Quality AQ Index Pollutant
Not available.

Snow Depth

Station Depth Elevation

Earthquake Activity

City Distance Mag. Time & Date
Minimum magnitude displayed is 2.5.

Coastal Water Temperatures

Place Temperature

Stations

Nearby Weather Stations

Station Location Temp. Windchill Dew Point Humidity Wind Precip. Elev Updated Type